Time;durP1;ratioP1;P1;durP2;ratioP2;P2;SDS_P1;SDS_P2;PMS_P1;PMS_P2;Temp;Humidity;BMP_temperature;BMP_pressure;BME280_temperature;BME280_humidity;BME280_pressure;Samples;Min_cycle;Max_cycle;Signal;HPM_P1;HPM_P2
2022/12/31 00:00:33;;;;;;;6.50;3.20;;;;;;;;;;4943783;28;20516;-65
2022/12/31 00:02:58;;;;;;;6.13;2.83;;;;;;;;;;4944580;28;20511;-66
2022/12/31 00:05:24;;;;;;;3.38;2.03;;;;;;;;;;4943940;28;20070;-65
2022/12/31 00:07:49;;;;;;;3.58;1.73;;;;;;;;;;4944053;28;20047;-65
2022/12/31 00:10:14;;;;;;;1.70;1.60;;;;;;;;;;4944328;28;20508;-66
2022/12/31 00:12:40;;;;;;;2.30;1.88;;;;;;;;;;4941282;28;20061;-65
2022/12/31 00:15:06;;;;;;;1.50;1.33;;;;;;;;;;4943580;28;20114;-66
2022/12/31 00:17:33;;;;;;;2.58;1.70;;;;;;;;;;4944270;28;20500;-65
2022/12/31 00:19:58;;;;;;;1.60;1.50;;;;;;;;;;4958326;28;20061;-64
2022/12/31 00:22:24;;;;;;;2.00;1.40;;;;;;;;;;4943257;28;20051;-65
2022/12/31 00:24:49;;;;;;;1.52;1.42;;;;;;;;;;4943704;28;20051;-65
2022/12/31 00:27:15;;;;;;;3.03;1.42;;;;;;;;;;4944330;28;20572;-64
2022/12/31 00:29:40;;;;;;;1.88;1.25;;;;;;;;;;4943564;28;20044;-66
2022/12/31 00:32:05;;;;;;;3.20;1.55;;;;;;;;;;4943273;28;20043;-66
2022/12/31 00:34:31;;;;;;;3.65;1.60;;;;;;;;;;4943765;28;20050;-64
2022/12/31 00:36:56;;;;;;;2.15;1.80;;;;;;;;;;4943242;28;20495;-65
2022/12/31 00:39:22;;;;;;;5.95;2.15;;;;;;;;;;4943918;28;20054;-63
2022/12/31 00:41:47;;;;;;;3.17;1.85;;;;;;;;;;4942908;28;20158;-64
2022/12/31 00:44:13;;;;;;;3.58;2.10;;;;;;;;;;4943779;28;20051;-64
2022/12/31 00:46:38;;;;;;;3.05;2.70;;;;;;;;;;4942429;28;20043;-64
2022/12/31 00:49:04;;;;;;;3.15;2.70;;;;;;;;;;4944069;28;20470;-63
2022/12/31 00:51:30;;;;;;;3.90;2.80;;;;;;;;;;4942802;28;20052;-64
2022/12/31 00:53:56;;;;;;;4.50;3.38;;;;;;;;;;4958465;28;20053;-64
2022/12/31 00:56:25;;;;;;;4.85;3.55;;;;;;;;;;4942431;28;20039;-65
2022/12/31 00:58:51;;;;;;;5.45;3.78;;;;;;;;;;4943653;28;20047;-64
2022/12/31 01:01:22;;;;;;;4.50;3.53;;;;;;;;;;4943161;28;20047;-63
2022/12/31 01:03:49;;;;;;;6.80;4.20;;;;;;;;;;4957318;28;20055;-62
2022/12/31 01:06:16;;;;;;;5.72;3.90;;;;;;;;;;4940840;28;20043;-67
2022/12/31 01:08:42;;;;;;;4.50;3.70;;;;;;;;;;4941320;28;20528;-65
2022/12/31 01:11:23;;;;;;;5.25;3.50;;;;;;;;;;4953203;28;20154;-65
2022/12/31 01:14:00;;;;;;;3.67;2.97;;;;;;;;;;4942053;28;20420;-65
2022/12/31 01:16:37;;;;;;;3.60;2.75;;;;;;;;;;4939662;28;20181;-64
2022/12/31 01:19:06;;;;;;;4.90;2.95;;;;;;;;;;4943283;28;20047;-64
2022/12/31 01:21:32;;;;;;;5.88;3.20;;;;;;;;;;4943021;28;20132;-66
2022/12/31 01:23:58;;;;;;;4.20;2.67;;;;;;;;;;4943513;28;20047;-66
2022/12/31 01:26:24;;;;;;;3.55;2.70;;;;;;;;;;4940938;28;20074;-63
2022/12/31 01:28:49;;;;;;;4.35;1.90;;;;;;;;;;4942287;28;20063;-64
2022/12/31 01:31:18;;;;;;;2.53;2.17;;;;;;;;;;4941647;28;20078;-63
2022/12/31 01:33:44;;;;;;;1.38;1.20;;;;;;;;;;4943304;28;20051;-65
2022/12/31 01:36:15;;;;;;;1.10;1.00;;;;;;;;;;4942360;28;20469;-65
2022/12/31 01:38:42;;;;;;;1.23;0.68;;;;;;;;;;4956475;28;20580;-65
2022/12/31 01:41:11;;;;;;;0.80;0.30;;;;;;;;;;4942478;28;20070;-63
2022/12/31 01:43:55;;;;;;;0.20;0.20;;;;;;;;;;4942937;28;20039;-63
2022/12/31 01:46:43;;;;;;;0.60;0.30;;;;;;;;;;4949625;28;20186;-66
2022/12/31 01:49:14;;;;;;;0.20;0.20;;;;;;;;;;4942307;28;20051;-64
2022/12/31 01:51:43;;;;;;;0.10;0.10;;;;;;;;;;4942204;28;20511;-65
2022/12/31 01:54:13;;;;;;;1.65;0.10;;;;;;;;;;4942547;28;20047;-66
2022/12/31 01:56:42;;;;;;;0.20;0.20;;;;;;;;;;4941554;28;20051;-66
2022/12/31 01:59:09;;;;;;;0.10;0.10;;;;;;;;;;4942659;28;20054;-65
2022/12/31 02:01:36;;;;;;;0.20;0.20;;;;;;;;;;4941707;28;20493;-65
2022/12/31 02:04:08;;;;;;;0.10;0.10;;;;;;;;;;4942987;28;20055;-65
2022/12/31 02:06:39;;;;;;;0.10;0.10;;;;;;;;;;4941545;28;20043;-65
2022/12/31 02:09:05;;;;;;;0.10;0.10;;;;;;;;;;4942586;28;20051;-65
2022/12/31 02:11:35;;;;;;;0.08;0.08;;;;;;;;;;4938874;28;20294;-65
2022/12/31 02:14:24;;;;;;;0.00;0.00;;;;;;;;;;4957173;28;20138;-65
2022/12/31 02:17:21;;;;;;;0.10;0.10;;;;;;;;;;4954618;28;20047;-63
2022/12/31 02:20:08;;;;;;;0.13;0.13;;;;;;;;;;4942485;28;20071;-65
2022/12/31 02:22:52;;;;;;;0.10;0.10;;;;;;;;;;4944499;28;20078;-65
2022/12/31 02:25:44;;;;;;;0.10;0.10;;;;;;;;;;4946004;28;20039;-65
2022/12/31 02:28:37;;;;;;;0.10;0.10;;;;;;;;;;4946385;28;20109;-65
2022/12/31 02:31:10;;;;;;;0.38;0.35;;;;;;;;;;4957887;28;20703;-65
2022/12/31 02:33:52;;;;;;;2.83;0.20;;;;;;;;;;4945531;28;20456;-65
2022/12/31 02:36:24;;;;;;;0.60;0.20;;;;;;;;;;4945126;28;20054;-65
2022/12/31 02:38:51;;;;;;;0.10;0.10;;;;;;;;;;4946117;28;20066;-65
2022/12/31 02:44:24;;;;;;;0.25;0.20;;;;;;;;;;4946461;28;20126;-66
2022/12/31 02:47:22;;;;;;;0.55;0.10;;;;;;;;;;4953651;28;20051;-65
2022/12/31 02:50:06;;;;;;;1.55;0.20;;;;;;;;;;4921602;29;20138;-66
2022/12/31 02:53:15;;;;;;;0.10;0.10;;;;;;;;;;4945157;28;20051;-66
2022/12/31 02:55:46;;;;;;;2.20;0.20;;;;;;;;;;4926386;28;20491;-65
2022/12/31 02:58:14;;;;;;;0.10;0.10;;;;;;;;;;4943959;28;20126;-66
2022/12/31 03:03:32;;;;;;;0.63;0.40;;;;;;;;;;4945734;28;20051;-66
2022/12/31 03:06:01;;;;;;;0.32;0.30;;;;;;;;;;4945074;28;20050;-63
2022/12/31 03:08:27;;;;;;;0.20;0.20;;;;;;;;;;4944467;28;20047;-65
2022/12/31 03:10:55;;;;;;;1.50;0.30;;;;;;;;;;4943454;28;20117;-65
2022/12/31 03:13:21;;;;;;;0.20;0.20;;;;;;;;;;4945417;28;20050;-65
2022/12/31 03:15:47;;;;;;;0.20;0.20;;;;;;;;;;4944862;28;20415;-65
2022/12/31 03:18:15;;;;;;;0.40;0.40;;;;;;;;;;4944617;28;20047;-65
2022/12/31 03:23:38;;;;;;;0.52;0.40;;;;;;;;;;4945251;28;20039;-64
2022/12/31 03:26:11;;;;;;;0.32;0.32;;;;;;;;;;4944794;28;20047;-65
2022/12/31 03:28:39;;;;;;;0.93;0.30;;;;;;;;;;4942811;28;20063;-65
2022/12/31 03:31:05;;;;;;;0.30;0.30;;;;;;;;;;4945065;28;20174;-66
2022/12/31 03:33:33;;;;;;;1.17;0.30;;;;;;;;;;4944698;28;20039;-65
2022/12/31 03:36:06;;;;;;;1.33;0.40;;;;;;;;;;4944489;28;20051;-65
2022/12/31 03:38:32;;;;;;;1.48;0.20;;;;;;;;;;4944512;28;20047;-65
2022/12/31 03:40:57;;;;;;;0.35;0.35;;;;;;;;;;4944211;28;20078;-65
2022/12/31 03:43:24;;;;;;;0.30;0.30;;;;;;;;;;4945059;28;20042;-64
2022/12/31 03:45:51;;;;;;;0.45;0.17;;;;;;;;;;4944380;28;20105;-65
2022/12/31 03:48:17;;;;;;;0.30;0.20;;;;;;;;;;4958851;28;20047;-66
2022/12/31 03:50:43;;;;;;;0.20;0.20;;;;;;;;;;4944230;28;20051;-65
2022/12/31 03:53:09;;;;;;;0.10;0.10;;;;;;;;;;4944724;28;20070;-65
2022/12/31 03:55:35;;;;;;;0.17;0.17;;;;;;;;;;4944422;28;20039;-65
2022/12/31 03:58:01;;;;;;;0.25;0.13;;;;;;;;;;4944791;28;20089;-66
2022/12/31 04:00:26;;;;;;;0.30;0.30;;;;;;;;;;4944470;28;20106;-65
2022/12/31 04:02:52;;;;;;;0.10;0.10;;;;;;;;;;4943737;28;20062;-63
2022/12/31 04:05:18;;;;;;;0.15;0.15;;;;;;;;;;4944027;28;20811;-65
2022/12/31 04:07:43;;;;;;;1.77;0.75;;;;;;;;;;4944563;28;20057;-65
2022/12/31 04:10:12;;;;;;;0.17;0.17;;;;;;;;;;4944790;28;20043;-66
2022/12/31 04:12:37;;;;;;;1.77;0.10;;;;;;;;;;4940823;28;20054;-65
2022/12/31 04:15:04;;;;;;;1.45;0.20;;;;;;;;;;4943632;28;20047;-64
2022/12/31 04:17:30;;;;;;;0.30;0.22;;;;;;;;;;4944298;28;20050;-64
2022/12/31 04:19:55;;;;;;;0.45;0.20;;;;;;;;;;4944368;28;20055;-65
2022/12/31 04:22:20;;;;;;;0.13;0.13;;;;;;;;;;4943821;28;20060;-65
2022/12/31 04:24:46;;;;;;;0.20;0.20;;;;;;;;;;4943513;28;20082;-65
2022/12/31 04:27:12;;;;;;;0.10;0.10;;;;;;;;;;4943429;28;20047;-64
2022/12/31 04:29:37;;;;;;;3.50;0.30;;;;;;;;;;4944220;28;20090;-65
2022/12/31 04:32:04;;;;;;;0.10;0.10;;;;;;;;;;4943681;28;20063;-64
2022/12/31 04:34:29;;;;;;;0.20;0.20;;;;;;;;;;4942857;28;20105;-64
2022/12/31 04:36:55;;;;;;;0.55;0.20;;;;;;;;;;4943303;28;20074;-65
2022/12/31 04:39:20;;;;;;;3.83;0.38;;;;;;;;;;4943971;28;20043;-66
2022/12/31 04:41:46;;;;;;;0.85;0.40;;;;;;;;;;4943954;28;20058;-65
2022/12/31 04:44:11;;;;;;;0.22;0.22;;;;;;;;;;4943263;28;20043;-66
2022/12/31 04:46:37;;;;;;;1.05;0.28;;;;;;;;;;4941704;28;20062;-64
2022/12/31 04:49:02;;;;;;;0.35;0.15;;;;;;;;;;4936347;28;20051;-66
2022/12/31 04:51:29;;;;;;;1.45;0.30;;;;;;;;;;4924541;29;20134;-65
2022/12/31 04:53:56;;;;;;;0.30;0.20;;;;;;;;;;4923803;28;20055;-66
2022/12/31 04:56:21;;;;;;;1.45;0.30;;;;;;;;;;4921543;28;20056;-64
2022/12/31 04:58:47;;;;;;;0.68;0.30;;;;;;;;;;4923953;29;20425;-64
2022/12/31 05:01:13;;;;;;;0.30;0.30;;;;;;;;;;4923357;28;20066;-66
2022/12/31 05:03:39;;;;;;;0.20;0.20;;;;;;;;;;4923879;29;20409;-66
2022/12/31 05:06:17;;;;;;;0.28;0.28;;;;;;;;;;4922505;29;20058;-66
2022/12/31 05:08:43;;;;;;;0.20;0.20;;;;;;;;;;4923407;29;20044;-67
2022/12/31 05:11:09;;;;;;;1.25;0.20;;;;;;;;;;4922002;29;20044;-66
2022/12/31 05:13:35;;;;;;;0.28;0.25;;;;;;;;;;4924491;28;20043;-66
2022/12/31 05:16:02;;;;;;;0.43;0.38;;;;;;;;;;4923363;29;20047;-64
2022/12/31 05:18:28;;;;;;;0.50;0.50;;;;;;;;;;4923120;28;20063;-65
2022/12/31 05:20:53;;;;;;;1.60;0.50;;;;;;;;;;4923763;29;20051;-64
2022/12/31 05:23:19;;;;;;;0.45;0.45;;;;;;;;;;4924219;28;20475;-63
2022/12/31 05:25:46;;;;;;;0.25;0.20;;;;;;;;;;4922406;28;20055;-65
2022/12/31 05:28:12;;;;;;;1.17;0.28;;;;;;;;;;4919881;28;20588;-65
2022/12/31 05:30:37;;;;;;;0.30;0.30;;;;;;;;;;4921647;28;20737;-64
2022/12/31 05:33:03;;;;;;;0.32;0.32;;;;;;;;;;4936850;29;20052;-64
2022/12/31 05:35:29;;;;;;;0.30;0.30;;;;;;;;;;4922566;28;20043;-67
2022/12/31 05:37:54;;;;;;;1.05;0.35;;;;;;;;;;4919688;28;20496;-64
2022/12/31 05:40:20;;;;;;;0.35;0.30;;;;;;;;;;4921258;29;20055;-64
2022/12/31 05:42:46;;;;;;;0.73;0.50;;;;;;;;;;4919770;28;20118;-65
2022/12/31 05:45:14;;;;;;;0.60;0.40;;;;;;;;;;4918417;28;20400;-64
2022/12/31 05:47:41;;;;;;;0.30;0.30;;;;;;;;;;4922609;28;20047;-63
2022/12/31 05:50:08;;;;;;;0.40;0.40;;;;;;;;;;4922636;28;20043;-66
2022/12/31 05:52:33;;;;;;;1.08;0.55;;;;;;;;;;4920800;28;20176;-66
2022/12/31 05:54:59;;;;;;;0.52;0.47;;;;;;;;;;4921014;28;20565;-68
2022/12/31 05:57:24;;;;;;;0.60;0.60;;;;;;;;;;4920053;29;20541;-67
2022/12/31 05:59:52;;;;;;;0.50;0.50;;;;;;;;;;4922573;28;20047;-67
2022/12/31 06:02:19;;;;;;;0.45;0.45;;;;;;;;;;4920960;28;20090;-73
2022/12/31 06:04:44;;;;;;;1.75;0.40;;;;;;;;;;4922536;29;20087;-63
2022/12/31 06:07:09;;;;;;;0.50;0.50;;;;;;;;;;4921830;28;20662;-65
2022/12/31 06:09:35;;;;;;;0.50;0.50;;;;;;;;;;4921057;29;20063;-64
2022/12/31 06:12:00;;;;;;;0.60;0.60;;;;;;;;;;4922805;28;20055;-63
2022/12/31 06:14:26;;;;;;;1.10;0.70;;;;;;;;;;4922019;28;20148;-64
2022/12/31 06:16:51;;;;;;;0.63;0.60;;;;;;;;;;4922872;29;20162;-64
2022/12/31 06:19:16;;;;;;;1.10;0.70;;;;;;;;;;4923278;28;20043;-68
2022/12/31 06:21:42;;;;;;;0.80;0.70;;;;;;;;;;4923201;29;20075;-69
2022/12/31 06:24:07;;;;;;;0.50;0.50;;;;;;;;;;4936364;28;20051;-67
2022/12/31 06:26:33;;;;;;;0.80;0.80;;;;;;;;;;4921056;28;20079;-69
2022/12/31 06:28:58;;;;;;;1.95;0.60;;;;;;;;;;4922628;29;20561;-66
2022/12/31 06:31:23;;;;;;;0.80;0.60;;;;;;;;;;4923091;28;20039;-67
2022/12/31 06:33:49;;;;;;;2.35;0.60;;;;;;;;;;4922083;29;20101;-67
2022/12/31 06:36:15;;;;;;;0.60;0.60;;;;;;;;;;4921852;28;20040;-68
2022/12/31 06:38:42;;;;;;;0.45;0.45;;;;;;;;;;4922615;28;20109;-68
2022/12/31 06:41:10;;;;;;;1.90;0.55;;;;;;;;;;4923003;29;20052;-66
2022/12/31 06:43:37;;;;;;;0.98;0.90;;;;;;;;;;4923201;28;20099;-66
2022/12/31 06:46:04;;;;;;;1.85;1.35;;;;;;;;;;4922263;29;20051;-67
2022/12/31 06:48:30;;;;;;;2.85;1.20;;;;;;;;;;4921366;28;20122;-66
2022/12/31 06:50:56;;;;;;;1.35;1.00;;;;;;;;;;4923419;29;20075;-67
2022/12/31 06:53:21;;;;;;;1.20;1.10;;;;;;;;;;4923038;29;20831;-68
2022/12/31 06:55:48;;;;;;;0.85;0.85;;;;;;;;;;4922528;28;20059;-67
2022/12/31 06:58:15;;;;;;;1.85;0.90;;;;;;;;;;4921985;29;20111;-67
2022/12/31 07:00:52;;;;;;;2.00;0.90;;;;;;;;;;4922082;28;20198;-66
2022/12/31 07:03:23;;;;;;;1.58;0.70;;;;;;;;;;4915236;28;20159;-66
2022/12/31 07:05:54;;;;;;;3.93;1.00;;;;;;;;;;4919782;29;20531;-66
2022/12/31 07:08:32;;;;;;;2.65;1.27;;;;;;;;;;4922501;28;20735;-66
2022/12/31 07:11:13;;;;;;;2.53;1.40;;;;;;;;;;4937661;28;20071;-66
2022/12/31 07:13:49;;;;;;;1.50;1.40;;;;;;;;;;4922471;28;20060;-66
2022/12/31 07:16:47;;;;;;;3.00;1.50;;;;;;;;;;4922196;28;20605;-67
2022/12/31 07:19:46;;;;;;;2.13;1.50;;;;;;;;;;4936586;28;20126;-66
2022/12/31 07:22:14;;;;;;;2.88;1.38;;;;;;;;;;4909531;28;20055;-66
2022/12/31 07:24:42;;;;;;;1.95;1.30;;;;;;;;;;4940829;28;20520;-67
2022/12/31 07:27:23;;;;;;;1.85;1.20;;;;;;;;;;4942229;28;20684;-67
2022/12/31 07:29:55;;;;;;;1.27;1.17;;;;;;;;;;4942940;28;20055;-67
2022/12/31 07:32:39;;;;;;;2.05;1.25;;;;;;;;;;4941494;28;20161;-67
2022/12/31 07:35:40;;;;;;;1.70;1.10;;;;;;;;;;4940732;28;20051;-66
2022/12/31 07:38:27;;;;;;;3.67;1.13;;;;;;;;;;4944099;28;20066;-67
2022/12/31 07:41:04;;;;;;;1.65;0.93;;;;;;;;;;4955504;28;20070;-66
2022/12/31 07:43:41;;;;;;;3.03;1.00;;;;;;;;;;4941856;28;20062;-65
2022/12/31 07:46:30;;;;;;;1.58;0.90;;;;;;;;;;4955260;28;20533;-67
2022/12/31 07:48:55;;;;;;;1.02;0.80;;;;;;;;;;4951109;28;20505;-66
2022/12/31 07:51:21;;;;;;;1.23;1.10;;;;;;;;;;4932879;28;20055;-66
2022/12/31 07:53:46;;;;;;;2.08;0.80;;;;;;;;;;4943432;28;20058;-66
2022/12/31 07:56:12;;;;;;;1.58;0.82;;;;;;;;;;4941657;28;20044;-67
2022/12/31 07:58:56;;;;;;;0.93;0.80;;;;;;;;;;4944133;28;20377;-68
2022/12/31 08:01:45;;;;;;;3.08;0.90;;;;;;;;;;4941600;28;20051;-67
2022/12/31 08:04:32;;;;;;;1.42;0.98;;;;;;;;;;4941481;28;20504;-66
2022/12/31 08:07:07;;;;;;;1.20;1.02;;;;;;;;;;4948958;28;20138;-67
2022/12/31 08:10:03;;;;;;;2.05;1.10;;;;;;;;;;4932930;28;20074;-67
2022/12/31 08:12:32;;;;;;;1.52;1.27;;;;;;;;;;4939916;28;20050;-67
2022/12/31 08:14:58;;;;;;;0.90;0.90;;;;;;;;;;4942898;28;20472;-67
2022/12/31 08:17:24;;;;;;;4.47;1.20;;;;;;;;;;4941554;28;20547;-67
2022/12/31 08:19:50;;;;;;;1.20;1.10;;;;;;;;;;4942418;28;20055;-67
2022/12/31 08:22:27;;;;;;;1.13;1.00;;;;;;;;;;4943746;28;20927;-67
2022/12/31 08:25:21;;;;;;;1.13;1.00;;;;;;;;;;4941456;28;20411;-67
2022/12/31 08:27:57;;;;;;;3.13;1.38;;;;;;;;;;4943535;28;20492;-67
2022/12/31 08:30:40;;;;;;;1.45;1.13;;;;;;;;;;4942595;28;20035;-67
2022/12/31 08:33:17;;;;;;;1.42;1.23;;;;;;;;;;4942589;28;20126;-67
2022/12/31 08:36:24;;;;;;;3.13;1.20;;;;;;;;;;4942587;28;20049;-67
2022/12/31 08:38:56;;;;;;;1.48;1.23;;;;;;;;;;4892483;29;20055;-67
2022/12/31 08:41:26;;;;;;;1.10;1.00;;;;;;;;;;4919844;28;20791;-67
2022/12/31 08:44:06;;;;;;;1.27;0.90;;;;;;;;;;4919899;28;20051;-67
2022/12/31 08:46:54;;;;;;;1.05;1.00;;;;;;;;;;4921249;28;20528;-68
2022/12/31 08:49:20;;;;;;;2.22;1.00;;;;;;;;;;4921901;28;20460;-67
2022/12/31 08:51:46;;;;;;;1.25;1.00;;;;;;;;;;4922609;28;20055;-67
2022/12/31 08:54:12;;;;;;;1.02;1.00;;;;;;;;;;4922822;28;20048;-67
2022/12/31 08:57:04;;;;;;;1.75;1.05;;;;;;;;;;4921484;28;20043;-66
2022/12/31 08:59:58;;;;;;;2.13;1.30;;;;;;;;;;4923734;28;20513;-67
2022/12/31 09:02:54;;;;;;;0.88;0.88;;;;;;;;;;4923088;28;20780;-67
2022/12/31 09:05:31;;;;;;;1.20;1.10;;;;;;;;;;4924767;28;20123;-68
2022/12/31 09:08:37;;;;;;;1.33;1.20;;;;;;;;;;4939071;28;20420;-69
2022/12/31 09:11:13;;;;;;;2.60;2.40;;;;;;;;;;4936614;28;20106;-67
2022/12/31 09:14:06;;;;;;;1.98;1.67;;;;;;;;;;4924149;28;20138;-66
2022/12/31 09:17:02;;;;;;;2.15;1.27;;;;;;;;;;4922732;28;20580;-66
2022/12/31 09:19:27;;;;;;;3.67;1.73;;;;;;;;;;4923891;28;20055;-66
2022/12/31 09:21:53;;;;;;;2.58;1.50;;;;;;;;;;4923246;28;20055;-66
2022/12/31 09:24:20;;;;;;;3.70;1.40;;;;;;;;;;4923086;28;20079;-66
2022/12/31 09:27:09;;;;;;;2.53;1.60;;;;;;;;;;4923333;28;20051;-66
2022/12/31 09:30:02;;;;;;;1.92;1.63;;;;;;;;;;4923460;28;20047;-65
2022/12/31 09:32:47;;;;;;;3.20;1.40;;;;;;;;;;4921868;28;20039;-67
2022/12/31 09:35:32;;;;;;;3.22;1.50;;;;;;;;;;4923569;28;20047;-66
2022/12/31 09:38:03;;;;;;;1.42;1.33;;;;;;;;;;4923942;28;20058;-67
2022/12/31 09:41:03;;;;;;;1.60;1.33;;;;;;;;;;4923058;28;20505;-65
2022/12/31 09:43:55;;;;;;;2.25;1.65;;;;;;;;;;4922814;28;20137;-67
2022/12/31 09:46:51;;;;;;;1.77;1.65;;;;;;;;;;4922187;28;20156;-67
2022/12/31 09:49:43;;;;;;;2.55;1.90;;;;;;;;;;4923235;28;20047;-67
2022/12/31 09:52:18;;;;;;;;;;;;;;;;;;4923209;28;20083;-67
2022/12/31 09:54:43;;;;;;;3.72;1.45;;;;;;;;;;4922233;28;19929;-66
2022/12/31 09:57:19;;;;;;;2.65;1.20;;;;;;;;;;4922635;28;20052;-67
2022/12/31 09:59:56;;;;;;;4.25;2.13;;;;;;;;;;4923142;28;20056;-67
2022/12/31 10:02:40;;;;;;;1.38;1.27;;;;;;;;;;4922548;28;20043;-68
2022/12/31 10:05:48;;;;;;;3.47;1.40;;;;;;;;;;4936998;28;20071;-67
2022/12/31 10:08:34;;;;;;;2.30;1.30;;;;;;;;;;4903759;29;20058;-67
2022/12/31 10:11:21;;;;;;;1.42;1.20;;;;;;;;;;4935279;29;20067;-68
2022/12/31 10:14:10;;;;;;;1.90;1.40;;;;;;;;;;4921570;28;20055;-68
2022/12/31 10:16:59;;;;;;;2.42;1.15;;;;;;;;;;4920308;28;20040;-67
2022/12/31 10:19:47;;;;;;;2.25;1.10;;;;;;;;;;4911396;28;20051;-67
2022/12/31 10:22:50;;;;;;;1.55;1.27;;;;;;;;;;4920696;28;20062;-67
2022/12/31 10:25:25;;;;;;;1.33;1.00;;;;;;;;;;4931492;29;20533;-65
2022/12/31 10:27:59;;;;;;;1.55;1.30;;;;;;;;;;4919624;28;20059;-66
2022/12/31 10:30:30;;;;;;;1.08;0.98;;;;;;;;;;4935542;28;20047;-65
2022/12/31 10:33:16;;;;;;;1.37;1.27;;;;;;;;;;4921599;28;20047;-65
2022/12/31 10:36:03;;;;;;;1.25;0.85;;;;;;;;;;4911548;29;20102;-66
2022/12/31 10:38:40;;;;;;;5.25;1.33;;;;;;;;;;4919499;28;20048;-65
2022/12/31 10:41:42;;;;;;;1.30;1.20;;;;;;;;;;4920350;28;20083;-66
2022/12/31 10:44:27;;;;;;;1.23;1.10;;;;;;;;;;4937619;28;20048;-65
2022/12/31 10:47:14;;;;;;;1.50;1.05;;;;;;;;;;4937037;29;20117;-67
2022/12/31 10:49:58;;;;;;;2.00;1.17;;;;;;;;;;4923831;28;20130;-66
2022/12/31 10:52:29;;;;;;;1.67;1.38;;;;;;;;;;4924893;28;20048;-66
2022/12/31 10:54:55;;;;;;;1.77;1.17;;;;;;;;;;4938339;29;20048;-67
2022/12/31 10:57:35;;;;;;;3.25;1.50;;;;;;;;;;4936369;28;20408;-67
2022/12/31 11:00:19;;;;;;;4.40;1.70;;;;;;;;;;4924117;28;20059;-68
2022/12/31 11:03:07;;;;;;;1.92;1.50;;;;;;;;;;4924237;28;20146;-68
2022/12/31 11:05:54;;;;;;;2.17;1.73;;;;;;;;;;4924879;28;20057;-67
2022/12/31 11:08:48;;;;;;;2.45;1.70;;;;;;;;;;4924932;28;21101;-67
2022/12/31 11:11:29;;;;;;;2.10;1.77;;;;;;;;;;4920962;29;20102;-67
2022/12/31 11:14:30;;;;;;;3.17;1.83;;;;;;;;;;4925001;28;20505;-67
2022/12/31 11:17:05;;;;;;;2.38;1.75;;;;;;;;;;4903982;29;20984;-67
2022/12/31 11:19:47;;;;;;;1.70;1.48;;;;;;;;;;4924116;28;20051;-67
2022/12/31 11:22:57;;;;;;;2.97;1.67;;;;;;;;;;4924039;28;21077;-67
2022/12/31 11:25:53;;;;;;;2.17;1.38;;;;;;;;;;4933424;28;20067;-67
2022/12/31 11:29:01;;;;;;;2.20;1.15;;;;;;;;;;4925090;28;20102;-67
2022/12/31 11:31:44;;;;;;;1.98;1.02;;;;;;;;;;4932363;28;20130;-67
2022/12/31 11:34:41;;;;;;;5.68;1.33;;;;;;;;;;4921078;28;20528;-68
2022/12/31 11:37:20;;;;;;;1.55;1.30;;;;;;;;;;4922152;29;20093;-69
2022/12/31 11:40:08;;;;;;;1.50;1.40;;;;;;;;;;4925607;28;20115;-68
2022/12/31 11:42:39;;;;;;;2.33;1.40;;;;;;;;;;4924632;28;20043;-68
2022/12/31 11:45:14;;;;;;;2.55;1.30;;;;;;;;;;4924392;28;20166;-68
2022/12/31 11:48:10;;;;;;;1.05;0.93;;;;;;;;;;4924855;28;20130;-68
2022/12/31 11:50:43;;;;;;;1.40;1.10;;;;;;;;;;4924399;28;20477;-68
2022/12/31 11:53:24;;;;;;;6.90;1.20;;;;;;;;;;4924218;28;20048;-68
2022/12/31 11:56:02;;;;;;;1.20;1.10;;;;;;;;;;4922834;28;20511;-68
2022/12/31 11:58:28;;;;;;;1.40;1.20;;;;;;;;;;4924675;28;20126;-68
2022/12/31 12:01:06;;;;;;;1.05;1.00;;;;;;;;;;4924982;28;20087;-68
2022/12/31 12:03:32;;;;;;;1.10;1.00;;;;;;;;;;4924529;28;20071;-67
2022/12/31 12:05:58;;;;;;;1.17;1.05;;;;;;;;;;4924010;28;20179;-68
2022/12/31 12:08:26;;;;;;;1.35;1.00;;;;;;;;;;4924495;28;20058;-68
2022/12/31 12:11:21;;;;;;;0.95;0.82;;;;;;;;;;4924942;28;20058;-68
2022/12/31 12:13:47;;;;;;;1.02;0.90;;;;;;;;;;4925323;28;20111;-67
2022/12/31 12:16:13;;;;;;;1.50;0.95;;;;;;;;;;4923809;28;20060;-68
2022/12/31 12:18:59;;;;;;;1.58;0.98;;;;;;;;;;4923941;28;20135;-68
2022/12/31 12:21:25;;;;;;;2.15;0.85;;;;;;;;;;4925562;28;20051;-68
2022/12/31 12:24:00;;;;;;;1.48;1.00;;;;;;;;;;4925181;28;20079;-69
2022/12/31 12:26:36;;;;;;;1.92;0.93;;;;;;;;;;4924032;28;20047;-68
2022/12/31 12:29:19;;;;;;;2.42;1.35;;;;;;;;;;4922954;28;20062;-68
2022/12/31 12:32:16;;;;;;;1.25;1.02;;;;;;;;;;4924006;28;20489;-68
2022/12/31 12:34:42;;;;;;;1.00;0.82;;;;;;;;;;4940919;28;20534;-68
2022/12/31 12:37:22;;;;;;;3.00;1.00;;;;;;;;;;4942770;28;20131;-68
2022/12/31 12:39:56;;;;;;;1.88;1.20;;;;;;;;;;4956771;28;20051;-68
2022/12/31 12:42:22;;;;;;;1.35;1.00;;;;;;;;;;4942117;28;20055;-68
2022/12/31 12:44:47;;;;;;;1.45;1.23;;;;;;;;;;4942901;28;20073;-68
2022/12/31 12:47:17;;;;;;;1.30;1.08;;;;;;;;;;4957762;28;20074;-68
2022/12/31 12:49:46;;;;;;;2.03;1.00;;;;;;;;;;4943300;28;20154;-69
2022/12/31 12:52:27;;;;;;;1.10;0.93;;;;;;;;;;4942999;28;20055;-68
2022/12/31 12:55:30;;;;;;;1.08;0.88;;;;;;;;;;4951944;28;20055;-69
2022/12/31 12:58:27;;;;;;;0.98;0.88;;;;;;;;;;4937836;28;20430;-68
2022/12/31 13:01:20;;;;;;;1.25;1.10;;;;;;;;;;4880834;29;20075;-68
2022/12/31 13:03:51;;;;;;;4.43;0.88;;;;;;;;;;4942225;28;20134;-68
2022/12/31 13:06:33;;;;;;;0.90;0.90;;;;;;;;;;4942054;28;20039;-68
2022/12/31 13:09:40;;;;;;;0.95;0.93;;;;;;;;;;4949584;28;20497;-68
2022/12/31 13:12:37;;;;;;;1.08;0.93;;;;;;;;;;4934934;28;21052;-68
2022/12/31 13:15:28;;;;;;;1.33;0.90;;;;;;;;;;4954762;28;20135;-68
2022/12/31 13:18:21;;;;;;;1.52;1.10;;;;;;;;;;4941519;28;20066;-69
2022/12/31 13:20:52;;;;;;;1.00;0.88;;;;;;;;;;4941803;28;20055;-69
2022/12/31 13:23:27;;;;;;;1.08;1.05;;;;;;;;;;4942603;28;20512;-69
2022/12/31 13:26:30;;;;;;;1.25;0.90;;;;;;;;;;4942957;28;20058;-69
2022/12/31 13:28:58;;;;;;;1.05;0.90;;;;;;;;;;4900930;28;20055;-69
2022/12/31 13:31:30;;;;;;;0.70;0.70;;;;;;;;;;4939224;28;20516;-68
2022/12/31 13:34:03;;;;;;;1.23;0.80;;;;;;;;;;4941489;28;20051;-68
2022/12/31 13:36:31;;;;;;;1.15;0.70;;;;;;;;;;4940470;28;20414;-68
2022/12/31 13:39:01;;;;;;;1.33;0.85;;;;;;;;;;4941490;28;20599;-68
2022/12/31 13:41:33;;;;;;;0.98;0.82;;;;;;;;;;4942098;28;20049;-69
2022/12/31 13:44:13;;;;;;;1.60;1.00;;;;;;;;;;4942026;28;20063;-68
2022/12/31 13:47:16;;;;;;;0.80;0.80;;;;;;;;;;4940043;28;20489;-69
2022/12/31 13:49:44;;;;;;;1.25;1.10;;;;;;;;;;4902233;29;20552;-68
2022/12/31 13:52:36;;;;;;;0.88;0.88;;;;;;;;;;4936986;28;20047;-68
2022/12/31 13:55:15;;;;;;;1.33;1.23;;;;;;;;;;4947866;28;20071;-69
2022/12/31 13:57:46;;;;;;;1.17;0.80;;;;;;;;;;4921639;28;20052;-68
2022/12/31 14:00:33;;;;;;;0.85;0.80;;;;;;;;;;4922648;28;20220;-68
2022/12/31 14:03:15;;;;;;;0.90;0.88;;;;;;;;;;4933947;28;20123;-68
2022/12/31 14:05:59;;;;;;;2.67;0.80;;;;;;;;;;4930295;28;20138;-69
2022/12/31 14:08:25;;;;;;;1.15;0.80;;;;;;;;;;4939775;28;20098;-68
2022/12/31 14:11:09;;;;;;;3.47;0.70;;;;;;;;;;4941774;28;20063;-68
2022/12/31 14:14:06;;;;;;;0.85;0.80;;;;;;;;;;4941875;28;20043;-68
2022/12/31 14:16:45;;;;;;;1.40;0.85;;;;;;;;;;4954170;28;20105;-69
2022/12/31 14:19:28;;;;;;;1.20;0.90;;;;;;;;;;4941021;28;20101;-68
2022/12/31 14:22:32;;;;;;;3.33;0.95;;;;;;;;;;4941009;28;20055;-69
2022/12/31 14:24:59;;;;;;;1.00;0.88;;;;;;;;;;4932690;28;20052;-69
2022/12/31 14:27:30;;;;;;;6.55;0.93;;;;;;;;;;4921786;29;20043;-68
2022/12/31 14:30:00;;;;;;;0.68;0.68;;;;;;;;;;4921493;28;20098;-68
2022/12/31 14:32:59;;;;;;;1.10;1.00;;;;;;;;;;4920879;29;20035;-68
2022/12/31 14:35:27;;;;;;;0.80;0.80;;;;;;;;;;4922402;28;20062;-68
2022/12/31 14:38:06;;;;;;;1.10;0.88;;;;;;;;;;4921485;29;20437;-68
2022/12/31 14:41:00;;;;;;;1.65;0.90;;;;;;;;;;4921602;28;20139;-68
2022/12/31 14:43:50;;;;;;;1.63;0.70;;;;;;;;;;4922888;28;20404;-68
2022/12/31 14:46:55;;;;;;;1.20;1.05;;;;;;;;;;4922106;29;20047;-68
2022/12/31 14:49:37;;;;;;;1.77;1.10;;;;;;;;;;4921230;29;20044;-67
2022/12/31 14:52:27;;;;;;;0.80;0.70;;;;;;;;;;4922556;29;20058;-68
2022/12/31 14:55:02;;;;;;;1.10;1.00;;;;;;;;;;4938084;28;20113;-68
2022/12/31 14:57:55;;;;;;;1.33;0.90;;;;;;;;;;4946794;28;20054;-68
2022/12/31 15:00:27;;;;;;;2.17;1.10;;;;;;;;;;4938646;28;20624;-68
2022/12/31 15:02:58;;;;;;;3.45;1.25;;;;;;;;;;4938861;28;20571;-68
2022/12/31 15:05:27;;;;;;;3.22;1.30;;;;;;;;;;4942092;28;20050;-67
2022/12/31 15:08:20;;;;;;;3.03;0.88;;;;;;;;;;4941626;28;20055;-67
2022/12/31 15:11:03;;;;;;;1.40;1.17;;;;;;;;;;4939954;28;20098;-67
2022/12/31 15:13:39;;;;;;;3.78;1.13;;;;;;;;;;4939714;28;20051;-67
2022/12/31 15:16:21;;;;;;;2.95;1.63;;;;;;;;;;4940581;28;20054;-67
2022/12/31 15:19:22;;;;;;;12.23;5.20;;;;;;;;;;4942200;28;20467;-68
2022/12/31 15:22:32;;;;;;;9.07;5.25;;;;;;;;;;4941792;28;20495;-67
2022/12/31 15:24:59;;;;;;;7.68;4.75;;;;;;;;;;4907644;29;20055;-67
2022/12/31 15:27:41;;;;;;;7.80;5.22;;;;;;;;;;4941282;28;20054;-67
2022/12/31 15:30:07;;;;;;;8.35;4.88;;;;;;;;;;4945051;28;20062;-68
2022/12/31 15:32:39;;;;;;;8.55;5.07;;;;;;;;;;4943817;28;20106;-67
2022/12/31 15:35:19;;;;;;;4.30;2.40;;;;;;;;;;4944292;28;20063;-68
2022/12/31 15:38:00;;;;;;;1.98;1.77;;;;;;;;;;4943456;28;20158;-68
2022/12/31 15:40:27;;;;;;;4.47;1.50;;;;;;;;;;4943393;28;20142;-67